sensor_id;sensor_type;location;lat;lon;timestamp;temperature;humidity
46784;DHT22;32544;52.832;13.816;2023-04-03T00:00:53;22.90;44.90
46784;DHT22;32544;52.832;13.816;2023-04-03T00:01:54;22.90;44.90
46784;DHT22;32544;52.832;13.816;2023-04-03T00:02:54;22.90;44.90
46784;DHT22;32544;52.832;13.816;2023-04-03T00:03:55;22.90;45.00
46784;DHT22;32544;52.832;13.816;2023-04-03T00:04:56;22.90;44.90
46784;DHT22;32544;52.832;13.816;2023-04-03T00:05:56;22.90;45.00
46784;DHT22;32544;52.832;13.816;2023-04-03T00:06:57;22.90;44.90
46784;DHT22;32544;52.832;13.816;2023-04-03T00:07:57;22.90;44.90
46784;DHT22;32544;52.832;13.816;2023-04-03T00:08:58;22.90;44.90
46784;DHT22;32544;52.832;13.816;2023-04-03T00:09:59;22.90;44.90
46784;DHT22;32544;52.832;13.816;2023-04-03T00:10:59;22.90;44.90
46784;DHT22;32544;52.832;13.816;2023-04-03T00:12:00;22.90;44.90
46784;DHT22;32544;52.832;13.816;2023-04-03T00:13:01;22.90;44.90
46784;DHT22;32544;52.832;13.816;2023-04-03T00:14:02;22.90;45.50
46784;DHT22;32544;52.832;13.816;2023-04-03T00:15:02;22.90;44.90
46784;DHT22;32544;52.832;13.816;2023-04-03T00:16:03;22.90;44.90
46784;DHT22;32544;52.832;13.816;2023-04-03T00:17:04;22.90;44.90
46784;DHT22;32544;52.832;13.816;2023-04-03T00:18:05;22.90;45.00
46784;DHT22;32544;52.832;13.816;2023-04-03T00:19:05;22.90;44.90
46784;DHT22;32544;52.832;13.816;2023-04-03T00:20:06;22.90;44.90
46784;DHT22;32544;52.832;13.816;2023-04-03T00:21:07;22.90;44.90
46784;DHT22;32544;52.832;13.816;2023-04-03T00:22:08;22.90;44.90
46784;DHT22;32544;52.832;13.816;2023-04-03T00:23:09;22.90;44.90
46784;DHT22;32544;52.832;13.816;2023-04-03T00:24:09;22.90;44.90
46784;DHT22;32544;52.832;13.816;2023-04-03T00:25:10;22.90;44.90
46784;DHT22;32544;52.832;13.816;2023-04-03T00:26:11;22.90;44.90
46784;DHT22;32544;52.832;13.816;2023-04-03T00:27:13;22.90;44.90
46784;DHT22;32544;52.832;13.816;2023-04-03T00:28:16;22.90;44.80
46784;DHT22;32544;52.832;13.816;2023-04-03T00:29:16;22.90;44.90
46784;DHT22;32544;52.832;13.816;2023-04-03T00:30:18;22.90;44.90
46784;DHT22;32544;52.832;13.816;2023-04-03T00:31:19;22.90;44.90
46784;DHT22;32544;52.832;13.816;2023-04-03T00:32:20;22.90;44.90
46784;DHT22;32544;52.832;13.816;2023-04-03T00:33:21;22.90;44.90
46784;DHT22;32544;52.832;13.816;2023-04-03T00:34:24;22.90;44.80
46784;DHT22;32544;52.832;13.816;2023-04-03T00:35:25;22.90;44.80
46784;DHT22;32544;52.832;13.816;2023-04-03T00:36:26;22.90;44.80
46784;DHT22;32544;52.832;13.816;2023-04-03T00:37:27;22.90;44.80
46784;DHT22;32544;52.832;13.816;2023-04-03T00:38:27;22.90;44.90
46784;DHT22;32544;52.832;13.816;2023-04-03T00:39:28;22.90;44.80
46784;DHT22;32544;52.832;13.816;2023-04-03T00:40:32;22.90;44.90
46784;DHT22;32544;52.832;13.816;2023-04-03T00:41:33;22.90;44.80
46784;DHT22;32544;52.832;13.816;2023-04-03T00:42:34;22.90;44.90
46784;DHT22;32544;52.832;13.816;2023-04-03T00:43:36;22.90;44.80
46784;DHT22;32544;52.832;13.816;2023-04-03T00:45:38;22.90;44.80
46784;DHT22;32544;52.832;13.816;2023-04-03T00:46:39;22.90;44.80
46784;DHT22;32544;52.832;13.816;2023-04-03T00:47:40;22.90;44.80
46784;DHT22;32544;52.832;13.816;2023-04-03T00:48:43;22.90;44.80
46784;DHT22;32544;52.832;13.816;2023-04-03T00:49:44;22.90;44.80
46784;DHT22;32544;52.832;13.816;2023-04-03T00:50:45;22.90;44.80
46784;DHT22;32544;52.832;13.816;2023-04-03T00:51:46;22.90;44.80
46784;DHT22;32544;52.832;13.816;2023-04-03T00:52:47;22.90;44.80
46784;DHT22;32544;52.832;13.816;2023-04-03T00:53:50;22.90;44.80
46784;DHT22;32544;52.832;13.816;2023-04-03T00:54:53;22.90;44.80
46784;DHT22;32544;52.832;13.816;2023-04-03T00:55:54;22.90;44.80
46784;DHT22;32544;52.832;13.816;2023-04-03T00:56:56;22.90;44.80
46784;DHT22;32544;52.832;13.816;2023-04-03T00:57:57;22.90;44.80
46784;DHT22;32544;52.832;13.816;2023-04-03T00:58:59;22.90;44.70
46784;DHT22;32544;52.832;13.816;2023-04-03T01:00:05;22.90;44.70
46784;DHT22;32544;52.832;13.816;2023-04-03T01:01:07;22.90;44.70
46784;DHT22;32544;52.832;13.816;2023-04-03T01:02:08;22.90;44.80
46784;DHT22;32544;52.832;13.816;2023-04-03T01:03:09;22.90;44.70
46784;DHT22;32544;52.832;13.816;2023-04-03T01:04:25;22.90;44.70
46784;DHT22;32544;52.832;13.816;2023-04-03T01:05:27;22.90;44.80
46784;DHT22;32544;52.832;13.816;2023-04-03T01:06:29;22.90;44.70
46784;DHT22;32544;52.832;13.816;2023-04-03T01:07:39;22.90;44.70
46784;DHT22;32544;52.832;13.816;2023-04-03T01:08:40;22.90;44.80
46784;DHT22;32544;52.832;13.816;2023-04-03T01:09:41;22.90;44.80
46784;DHT22;32544;52.832;13.816;2023-04-03T01:10:42;22.90;44.70
46784;DHT22;32544;52.832;13.816;2023-04-03T01:11:43;22.90;44.70
46784;DHT22;32544;52.832;13.816;2023-04-03T01:12:44;22.90;44.70
46784;DHT22;32544;52.832;13.816;2023-04-03T01:13:45;22.90;44.70
46784;DHT22;32544;52.832;13.816;2023-04-03T01:14:48;22.90;44.70
46784;DHT22;32544;52.832;13.816;2023-04-03T01:15:49;22.90;44.70
46784;DHT22;32544;52.832;13.816;2023-04-03T01:16:52;22.90;45.30
46784;DHT22;32544;52.832;13.816;2023-04-03T01:17:53;22.90;44.70
46784;DHT22;32544;52.832;13.816;2023-04-03T01:18:56;22.90;44.60
46784;DHT22;32544;52.832;13.816;2023-04-03T01:20:02;22.90;44.60
46784;DHT22;32544;52.832;13.816;2023-04-03T01:21:29;22.90;44.60
46784;DHT22;32544;52.832;13.816;2023-04-03T01:23:38;23.10;44.80
46784;DHT22;32544;52.832;13.816;2023-04-03T01:25:08;22.90;44.60
46784;DHT22;32544;52.832;13.816;2023-04-03T01:26:09;22.90;44.60
46784;DHT22;32544;52.832;13.816;2023-04-03T01:27:12;22.90;44.60
46784;DHT22;32544;52.832;13.816;2023-04-03T01:28:20;23.00;44.60
46784;DHT22;32544;52.832;13.816;2023-04-03T01:29:20;22.90;44.50
46784;DHT22;32544;52.832;13.816;2023-04-03T01:30:22;22.90;44.60
46784;DHT22;32544;52.832;13.816;2023-04-03T01:31:31;23.00;44.60
46784;DHT22;32544;52.832;13.816;2023-04-03T01:32:33;23.00;44.60
46784;DHT22;32544;52.832;13.816;2023-04-03T01:33:34;22.90;44.50
46784;DHT22;32544;52.832;13.816;2023-04-03T01:34:35;23.00;44.50
46784;DHT22;32544;52.832;13.816;2023-04-03T01:35:37;23.00;45.10
46784;DHT22;32544;52.832;13.816;2023-04-03T01:36:37;23.00;44.40
46784;DHT22;32544;52.832;13.816;2023-04-03T01:37:38;23.00;44.40
46784;DHT22;32544;52.832;13.816;2023-04-03T01:38:39;23.00;44.50
46784;DHT22;32544;52.832;13.816;2023-04-03T01:39:40;23.00;44.40
46784;DHT22;32544;52.832;13.816;2023-04-03T01:40:40;23.00;44.40
46784;DHT22;32544;52.832;13.816;2023-04-03T01:41:41;23.00;44.40
46784;DHT22;32544;52.832;13.816;2023-04-03T01:42:47;23.00;44.40
46784;DHT22;32544;52.832;13.816;2023-04-03T01:43:48;23.00;44.40
46784;DHT22;32544;52.832;13.816;2023-04-03T01:44:49;22.90;44.40
46784;DHT22;32544;52.832;13.816;2023-04-03T01:45:49;23.00;44.40
46784;DHT22;32544;52.832;13.816;2023-04-03T01:46:51;23.00;44.50
46784;DHT22;32544;52.832;13.816;2023-04-03T01:47:52;23.00;44.40
46784;DHT22;32544;52.832;13.816;2023-04-03T01:48:52;23.00;44.40
46784;DHT22;32544;52.832;13.816;2023-04-03T01:49:53;23.00;44.40
46784;DHT22;32544;52.832;13.816;2023-04-03T01:50:54;23.00;44.40
46784;DHT22;32544;52.832;13.816;2023-04-03T01:51:55;23.00;44.40
46784;DHT22;32544;52.832;13.816;2023-04-03T01:52:55;23.00;44.50
46784;DHT22;32544;52.832;13.816;2023-04-03T01:53:56;23.00;44.40
46784;DHT22;32544;52.832;13.816;2023-04-03T01:54:57;23.00;44.40
46784;DHT22;32544;52.832;13.816;2023-04-03T01:55:57;23.00;44.40
46784;DHT22;32544;52.832;13.816;2023-04-03T01:56:58;23.00;44.40
46784;DHT22;32544;52.832;13.816;2023-04-03T01:57:59;23.00;44.40
46784;DHT22;32544;52.832;13.816;2023-04-03T01:59:00;23.00;44.40
46784;DHT22;32544;52.832;13.816;2023-04-03T02:00:00;23.00;44.40
46784;DHT22;32544;52.832;13.816;2023-04-03T02:01:01;23.00;44.40
46784;DHT22;32544;52.832;13.816;2023-04-03T02:02:03;23.00;44.40
46784;DHT22;32544;52.832;13.816;2023-04-03T02:03:03;23.00;44.40
46784;DHT22;32544;52.832;13.816;2023-04-03T02:04:04;23.00;44.40
46784;DHT22;32544;52.832;13.816;2023-04-03T02:05:05;23.00;44.40
46784;DHT22;32544;52.832;13.816;2023-04-03T02:06:06;23.00;44.50
46784;DHT22;32544;52.832;13.816;2023-04-03T02:07:07;23.00;44.40
46784;DHT22;32544;52.832;13.816;2023-04-03T02:08:08;23.00;44.40
46784;DHT22;32544;52.832;13.816;2023-04-03T02:09:09;23.00;44.40
46784;DHT22;32544;52.832;13.816;2023-04-03T02:10:09;23.00;44.40
46784;DHT22;32544;52.832;13.816;2023-04-03T02:11:10;23.00;44.40
46784;DHT22;32544;52.832;13.816;2023-04-03T02:12:11;23.00;44.50
46784;DHT22;32544;52.832;13.816;2023-04-03T02:13:11;23.00;44.40
46784;DHT22;32544;52.832;13.816;2023-04-03T02:14:12;23.00;44.40
46784;DHT22;32544;52.832;13.816;2023-04-03T02:15:13;23.00;44.40
46784;DHT22;32544;52.832;13.816;2023-04-03T02:16:13;23.00;44.50
46784;DHT22;32544;52.832;13.816;2023-04-03T02:17:14;23.00;44.40
46784;DHT22;32544;52.832;13.816;2023-04-03T02:18:15;23.00;44.40
46784;DHT22;32544;52.832;13.816;2023-04-03T02:19:15;23.00;44.40
46784;DHT22;32544;52.832;13.816;2023-04-03T02:20:16;23.00;44.40
46784;DHT22;32544;52.832;13.816;2023-04-03T02:21:18;23.00;44.40
46784;DHT22;32544;52.832;13.816;2023-04-03T02:22:18;23.00;44.40
46784;DHT22;32544;52.832;13.816;2023-04-03T02:23:20;23.00;44.40
46784;DHT22;32544;52.832;13.816;2023-04-03T02:24:21;23.00;44.40
46784;DHT22;32544;52.832;13.816;2023-04-03T02:25:21;23.00;44.40
46784;DHT22;32544;52.832;13.816;2023-04-03T02:26:22;23.00;44.30
46784;DHT22;32544;52.832;13.816;2023-04-03T02:27:22;23.00;44.40
46784;DHT22;32544;52.832;13.816;2023-04-03T02:28:23;23.00;44.40
46784;DHT22;32544;52.832;13.816;2023-04-03T02:29:24;23.00;44.40
46784;DHT22;32544;52.832;13.816;2023-04-03T02:30:25;23.00;44.40
46784;DHT22;32544;52.832;13.816;2023-04-03T02:31:25;23.00;44.40
46784;DHT22;32544;52.832;13.816;2023-04-03T02:32:26;23.00;44.40
46784;DHT22;32544;52.832;13.816;2023-04-03T02:33:27;23.00;44.40
46784;DHT22;32544;52.832;13.816;2023-04-03T02:34:28;23.00;44.40
46784;DHT22;32544;52.832;13.816;2023-04-03T02:35:30;23.00;44.40
46784;DHT22;32544;52.832;13.816;2023-04-03T02:36:32;23.00;44.40
46784;DHT22;32544;52.832;13.816;2023-04-03T02:37:35;23.00;44.40
46784;DHT22;32544;52.832;13.816;2023-04-03T02:38:36;23.00;44.40
46784;DHT22;32544;52.832;13.816;2023-04-03T02:39:36;23.00;44.40
46784;DHT22;32544;52.832;13.816;2023-04-03T02:40:37;23.00;44.40
46784;DHT22;32544;52.832;13.816;2023-04-03T02:41:38;22.90;44.30
46784;DHT22;32544;52.832;13.816;2023-04-03T02:42:43;23.00;44.40
46784;DHT22;32544;52.832;13.816;2023-04-03T02:43:45;23.00;44.40
46784;DHT22;32544;52.832;13.816;2023-04-03T02:44:46;23.00;44.40
46784;DHT22;32544;52.832;13.816;2023-04-03T02:45:46;23.00;44.40
46784;DHT22;32544;52.832;13.816;2023-04-03T02:46:47;23.00;44.30
46784;DHT22;32544;52.832;13.816;2023-04-03T02:47:48;23.00;44.40
46784;DHT22;32544;52.832;13.816;2023-04-03T02:48:48;23.00;44.30
46784;DHT22;32544;52.832;13.816;2023-04-03T02:49:49;23.00;44.30
46784;DHT22;32544;52.832;13.816;2023-04-03T02:50:49;23.00;44.30
46784;DHT22;32544;52.832;13.816;2023-04-03T02:51:50;23.00;44.30
46784;DHT22;32544;52.832;13.816;2023-04-03T02:52:51;23.00;44.30
46784;DHT22;32544;52.832;13.816;2023-04-03T02:53:52;23.00;44.30
46784;DHT22;32544;52.832;13.816;2023-04-03T02:54:56;23.00;44.40
46784;DHT22;32544;52.832;13.816;2023-04-03T02:55:57;23.00;44.30
46784;DHT22;32544;52.832;13.816;2023-04-03T02:56:58;23.00;44.30
46784;DHT22;32544;52.832;13.816;2023-04-03T02:57:58;23.00;44.30
46784;DHT22;32544;52.832;13.816;2023-04-03T02:58:59;23.00;44.30
46784;DHT22;32544;52.832;13.816;2023-04-03T03:00:00;23.00;44.30
46784;DHT22;32544;52.832;13.816;2023-04-03T03:01:01;23.00;44.30
46784;DHT22;32544;52.832;13.816;2023-04-03T03:02:02;23.00;44.30
46784;DHT22;32544;52.832;13.816;2023-04-03T03:03:03;23.00;44.30
46784;DHT22;32544;52.832;13.816;2023-04-03T03:04:03;23.00;44.30
46784;DHT22;32544;52.832;13.816;2023-04-03T03:05:04;23.00;44.30
46784;DHT22;32544;52.832;13.816;2023-04-03T03:06:06;23.00;44.30
46784;DHT22;32544;52.832;13.816;2023-04-03T03:07:07;23.00;44.30
46784;DHT22;32544;52.832;13.816;2023-04-03T03:08:08;23.00;44.30
46784;DHT22;32544;52.832;13.816;2023-04-03T03:09:08;23.00;44.30
46784;DHT22;32544;52.832;13.816;2023-04-03T03:10:09;23.00;44.30
46784;DHT22;32544;52.832;13.816;2023-04-03T03:11:10;23.00;44.30
46784;DHT22;32544;52.832;13.816;2023-04-03T03:12:11;23.00;44.30
46784;DHT22;32544;52.832;13.816;2023-04-03T03:13:11;23.00;44.60
46784;DHT22;32544;52.832;13.816;2023-04-03T03:14:12;23.00;44.30
46784;DHT22;32544;52.832;13.816;2023-04-03T03:15:12;23.00;44.30
46784;DHT22;32544;52.832;13.816;2023-04-03T03:16:13;23.00;44.30
46784;DHT22;32544;52.832;13.816;2023-04-03T03:17:14;23.00;44.30
46784;DHT22;32544;52.832;13.816;2023-04-03T03:18:14;23.00;44.30
46784;DHT22;32544;52.832;13.816;2023-04-03T03:19:15;23.00;44.30
46784;DHT22;32544;52.832;13.816;2023-04-03T03:20:16;23.00;44.30
46784;DHT22;32544;52.832;13.816;2023-04-03T03:21:17;23.00;44.30
46784;DHT22;32544;52.832;13.816;2023-04-03T03:22:18;23.00;44.30
46784;DHT22;32544;52.832;13.816;2023-04-03T03:23:18;23.00;44.30
46784;DHT22;32544;52.832;13.816;2023-04-03T03:24:19;23.00;44.20
46784;DHT22;32544;52.832;13.816;2023-04-03T03:25:21;23.00;44.30
46784;DHT22;32544;52.832;13.816;2023-04-03T03:26:22;23.00;44.30
46784;DHT22;32544;52.832;13.816;2023-04-03T03:27:24;23.00;44.30
46784;DHT22;32544;52.832;13.816;2023-04-03T03:28:25;23.00;44.30
46784;DHT22;32544;52.832;13.816;2023-04-03T03:29:26;23.00;44.30
46784;DHT22;32544;52.832;13.816;2023-04-03T03:30:27;23.00;44.30
46784;DHT22;32544;52.832;13.816;2023-04-03T03:31:27;23.00;44.30
46784;DHT22;32544;52.832;13.816;2023-04-03T03:32:28;23.00;44.30
46784;DHT22;32544;52.832;13.816;2023-04-03T03:33:29;23.00;44.30
46784;DHT22;32544;52.832;13.816;2023-04-03T03:34:30;23.00;44.30
46784;DHT22;32544;52.832;13.816;2023-04-03T03:35:30;23.00;44.30
46784;DHT22;32544;52.832;13.816;2023-04-03T03:36:31;23.00;44.30
46784;DHT22;32544;52.832;13.816;2023-04-03T03:37:32;23.00;44.30
46784;DHT22;32544;52.832;13.816;2023-04-03T03:38:32;23.00;44.30
46784;DHT22;32544;52.832;13.816;2023-04-03T03:39:35;23.00;44.30
46784;DHT22;32544;52.832;13.816;2023-04-03T03:40:35;23.00;44.30
46784;DHT22;32544;52.832;13.816;2023-04-03T03:41:36;23.00;44.30
46784;DHT22;32544;52.832;13.816;2023-04-03T03:42:38;23.00;44.30
46784;DHT22;32544;52.832;13.816;2023-04-03T03:43:39;23.00;44.30
46784;DHT22;32544;52.832;13.816;2023-04-03T03:44:41;23.00;44.30
46784;DHT22;32544;52.832;13.816;2023-04-03T03:45:42;23.00;44.30
46784;DHT22;32544;52.832;13.816;2023-04-03T03:46:43;23.00;44.30
46784;DHT22;32544;52.832;13.816;2023-04-03T03:47:43;23.00;44.30
46784;DHT22;32544;52.832;13.816;2023-04-03T03:48:44;23.00;44.30
46784;DHT22;32544;52.832;13.816;2023-04-03T03:49:45;23.00;44.30
46784;DHT22;32544;52.832;13.816;2023-04-03T03:50:46;22.90;44.30
46784;DHT22;32544;52.832;13.816;2023-04-03T03:51:47;22.90;44.30
46784;DHT22;32544;52.832;13.816;2023-04-03T03:52:48;22.90;44.30
46784;DHT22;32544;52.832;13.816;2023-04-03T03:53:48;22.90;44.30
46784;DHT22;32544;52.832;13.816;2023-04-03T03:54:52;22.90;44.30
46784;DHT22;32544;52.832;13.816;2023-04-03T03:55:53;22.90;44.30
46784;DHT22;32544;52.832;13.816;2023-04-03T03:56:56;22.90;44.30
46784;DHT22;32544;52.832;13.816;2023-04-03T03:57:58;22.90;44.30
46784;DHT22;32544;52.832;13.816;2023-04-03T03:59:01;22.90;44.30
46784;DHT22;32544;52.832;13.816;2023-04-03T04:00:02;22.90;44.30
46784;DHT22;32544;52.832;13.816;2023-04-03T04:01:05;22.90;44.30
46784;DHT22;32544;52.832;13.816;2023-04-03T04:02:07;22.90;44.40
46784;DHT22;32544;52.832;13.816;2023-04-03T04:03:08;22.90;44.30
46784;DHT22;32544;52.832;13.816;2023-04-03T04:04:09;22.90;44.40
46784;DHT22;32544;52.832;13.816;2023-04-03T04:05:09;22.90;44.40
46784;DHT22;32544;52.832;13.816;2023-04-03T04:06:10;22.90;44.40
46784;DHT22;32544;52.832;13.816;2023-04-03T04:07:11;22.90;44.40
46784;DHT22;32544;52.832;13.816;2023-04-03T04:08:12;22.90;44.40
46784;DHT22;32544;52.832;13.816;2023-04-03T04:09:13;22.90;44.40
46784;DHT22;32544;52.832;13.816;2023-04-03T04:10:14;22.90;44.40
46784;DHT22;32544;52.832;13.816;2023-04-03T04:11:15;22.90;44.40
46784;DHT22;32544;52.832;13.816;2023-04-03T04:12:17;22.90;44.40
46784;DHT22;32544;52.832;13.816;2023-04-03T04:13:18;22.90;44.40
46784;DHT22;32544;52.832;13.816;2023-04-03T04:14:19;22.90;44.40
46784;DHT22;32544;52.832;13.816;2023-04-03T04:15:23;22.90;44.40
46784;DHT22;32544;52.832;13.816;2023-04-03T04:16:26;22.90;44.40
46784;DHT22;32544;52.832;13.816;2023-04-03T04:17:27;22.90;44.40
46784;DHT22;32544;52.832;13.816;2023-04-03T04:18:28;22.90;44.40
46784;DHT22;32544;52.832;13.816;2023-04-03T04:19:29;22.90;44.40
46784;DHT22;32544;52.832;13.816;2023-04-03T04:20:29;22.90;44.40
46784;DHT22;32544;52.832;13.816;2023-04-03T04:21:31;22.90;44.50
46784;DHT22;32544;52.832;13.816;2023-04-03T04:22:32;22.90;44.40
46784;DHT22;32544;52.832;13.816;2023-04-03T04:23:33;22.90;44.40
46784;DHT22;32544;52.832;13.816;2023-04-03T04:24:34;22.90;44.40
46784;DHT22;32544;52.832;13.816;2023-04-03T04:25:36;22.80;44.40
46784;DHT22;32544;52.832;13.816;2023-04-03T04:26:37;22.80;44.50
46784;DHT22;32544;52.832;13.816;2023-04-03T04:27:37;22.80;44.40
46784;DHT22;32544;52.832;13.816;2023-04-03T04:28:38;22.80;44.40
46784;DHT22;32544;52.832;13.816;2023-04-03T04:29:40;22.80;44.40
46784;DHT22;32544;52.832;13.816;2023-04-03T04:30:42;22.80;44.40
46784;DHT22;32544;52.832;13.816;2023-04-03T04:31:43;22.70;44.40
46784;DHT22;32544;52.832;13.816;2023-04-03T04:32:43;22.80;44.40
46784;DHT22;32544;52.832;13.816;2023-04-03T04:33:44;22.80;44.50
46784;DHT22;32544;52.832;13.816;2023-04-03T04:34:47;22.80;44.50
46784;DHT22;32544;52.832;13.816;2023-04-03T04:35:48;22.80;44.50
46784;DHT22;32544;52.832;13.816;2023-04-03T04:36:50;22.80;44.40
46784;DHT22;32544;52.832;13.816;2023-04-03T04:37:51;22.80;44.50
46784;DHT22;32544;52.832;13.816;2023-04-03T04:38:52;22.80;44.50
46784;DHT22;32544;52.832;13.816;2023-04-03T04:39:54;22.80;44.50
46784;DHT22;32544;52.832;13.816;2023-04-03T04:40:55;22.80;44.50
46784;DHT22;32544;52.832;13.816;2023-04-03T04:41:56;22.80;44.40
46784;DHT22;32544;52.832;13.816;2023-04-03T04:42:58;22.80;44.40
46784;DHT22;32544;52.832;13.816;2023-04-03T04:43:58;22.80;44.40
46784;DHT22;32544;52.832;13.816;2023-04-03T04:44:59;22.80;44.40
46784;DHT22;32544;52.832;13.816;2023-04-03T04:46:04;22.80;44.50
46784;DHT22;32544;52.832;13.816;2023-04-03T04:47:08;22.80;44.40
46784;DHT22;32544;52.832;13.816;2023-04-03T04:48:09;22.80;44.40
46784;DHT22;32544;52.832;13.816;2023-04-03T04:49:09;22.80;44.40
46784;DHT22;32544;52.832;13.816;2023-04-03T04:50:10;22.80;44.40
46784;DHT22;32544;52.832;13.816;2023-04-03T04:51:11;22.80;44.40
46784;DHT22;32544;52.832;13.816;2023-04-03T04:52:13;22.80;44.30
46784;DHT22;32544;52.832;13.816;2023-04-03T04:53:14;22.80;44.40
46784;DHT22;32544;52.832;13.816;2023-04-03T04:54:16;22.80;44.30
46784;DHT22;32544;52.832;13.816;2023-04-03T04:55:17;22.80;44.40
46784;DHT22;32544;52.832;13.816;2023-04-03T04:56:18;22.80;44.40
46784;DHT22;32544;52.832;13.816;2023-04-03T04:57:19;22.90;44.40
46784;DHT22;32544;52.832;13.816;2023-04-03T04:58:21;22.80;44.30
46784;DHT22;32544;52.832;13.816;2023-04-03T04:59:21;22.80;44.30
46784;DHT22;32544;52.832;13.816;2023-04-03T05:00:23;22.90;44.40
46784;DHT22;32544;52.832;13.816;2023-04-03T05:01:23;22.90;44.30
46784;DHT22;32544;52.832;13.816;2023-04-03T05:02:47;22.80;44.30
46784;DHT22;32544;52.832;13.816;2023-04-03T05:03:47;22.90;44.30
46784;DHT22;32544;52.832;13.816;2023-04-03T05:04:48;22.90;44.30
46784;DHT22;32544;52.832;13.816;2023-04-03T05:05:54;22.90;44.30
46784;DHT22;32544;52.832;13.816;2023-04-03T05:06:55;22.90;44.30
46784;DHT22;32544;52.832;13.816;2023-04-03T05:07:59;22.90;44.30
46784;DHT22;32544;52.832;13.816;2023-04-03T05:09:00;22.90;44.30
46784;DHT22;32544;52.832;13.816;2023-04-03T05:10:01;22.90;44.30
46784;DHT22;32544;52.832;13.816;2023-04-03T05:11:03;22.90;44.40
46784;DHT22;32544;52.832;13.816;2023-04-03T05:12:05;22.90;44.30
46784;DHT22;32544;52.832;13.816;2023-04-03T05:13:12;22.70;44.20
46784;DHT22;32544;52.832;13.816;2023-04-03T05:14:13;22.90;44.30
46784;DHT22;32544;52.832;13.816;2023-04-03T05:15:14;22.90;44.30
46784;DHT22;32544;52.832;13.816;2023-04-03T05:16:14;22.90;44.30
46784;DHT22;32544;52.832;13.816;2023-04-03T05:17:15;22.90;44.30
46784;DHT22;32544;52.832;13.816;2023-04-03T05:18:22;22.90;44.30
46784;DHT22;32544;52.832;13.816;2023-04-03T05:19:23;22.90;44.30
46784;DHT22;32544;52.832;13.816;2023-04-03T05:20:24;22.90;44.30
46784;DHT22;32544;52.832;13.816;2023-04-03T05:21:25;22.90;44.30
46784;DHT22;32544;52.832;13.816;2023-04-03T05:22:28;22.90;44.30
46784;DHT22;32544;52.832;13.816;2023-04-03T05:23:33;22.90;44.30
46784;DHT22;32544;52.832;13.816;2023-04-03T05:24:36;22.90;44.20
46784;DHT22;32544;52.832;13.816;2023-04-03T05:25:38;22.90;44.30
46784;DHT22;32544;52.832;13.816;2023-04-03T05:26:39;22.90;44.20
46784;DHT22;32544;52.832;13.816;2023-04-03T05:27:40;22.90;44.20
46784;DHT22;32544;52.832;13.816;2023-04-03T05:28:42;22.90;44.20
46784;DHT22;32544;52.832;13.816;2023-04-03T05:29:43;22.90;44.20
46784;DHT22;32544;52.832;13.816;2023-04-03T05:30:45;22.90;44.20
46784;DHT22;32544;52.832;13.816;2023-04-03T05:31:46;22.90;44.20
46784;DHT22;32544;52.832;13.816;2023-04-03T05:32:49;22.90;44.20
46784;DHT22;32544;52.832;13.816;2023-04-03T05:33:59;22.90;44.20
46784;DHT22;32544;52.832;13.816;2023-04-03T05:35:01;22.90;44.20
46784;DHT22;32544;52.832;13.816;2023-04-03T05:36:03;22.90;44.20
46784;DHT22;32544;52.832;13.816;2023-04-03T05:37:05;22.90;44.20
46784;DHT22;32544;52.832;13.816;2023-04-03T05:38:06;22.90;44.20
46784;DHT22;32544;52.832;13.816;2023-04-03T05:39:07;22.90;44.20
46784;DHT22;32544;52.832;13.816;2023-04-03T05:40:11;22.90;44.20
46784;DHT22;32544;52.832;13.816;2023-04-03T05:41:15;22.90;44.20
46784;DHT22;32544;52.832;13.816;2023-04-03T05:42:17;22.90;44.20
46784;DHT22;32544;52.832;13.816;2023-04-03T05:43:18;22.90;44.20
46784;DHT22;32544;52.832;13.816;2023-04-03T05:44:19;22.90;44.20
46784;DHT22;32544;52.832;13.816;2023-04-03T05:45:22;22.90;44.80
46784;DHT22;32544;52.832;13.816;2023-04-03T05:46:23;22.90;44.20
46784;DHT22;32544;52.832;13.816;2023-04-03T05:47:27;22.90;44.20
46784;DHT22;32544;52.832;13.816;2023-04-03T05:48:27;22.90;44.20
46784;DHT22;32544;52.832;13.816;2023-04-03T05:49:28;22.90;44.20
46784;DHT22;32544;52.832;13.816;2023-04-03T05:50:29;22.90;44.20
46784;DHT22;32544;52.832;13.816;2023-04-03T05:51:32;22.90;44.20
46784;DHT22;32544;52.832;13.816;2023-04-03T05:52:39;22.90;44.10
46784;DHT22;32544;52.832;13.816;2023-04-03T05:53:41;22.90;44.20
46784;DHT22;32544;52.832;13.816;2023-04-03T05:54:41;22.90;44.80
46784;DHT22;32544;52.832;13.816;2023-04-03T05:55:48;22.90;44.20
46784;DHT22;32544;52.832;13.816;2023-04-03T05:56:50;22.90;44.10
46784;DHT22;32544;52.832;13.816;2023-04-03T05:57:51;22.90;44.10
46784;DHT22;32544;52.832;13.816;2023-04-03T05:58:51;22.90;44.10
46784;DHT22;32544;52.832;13.816;2023-04-03T05:59:52;22.90;44.00
46784;DHT22;32544;52.832;13.816;2023-04-03T06:00:54;22.90;44.00
46784;DHT22;32544;52.832;13.816;2023-04-03T06:01:55;22.90;43.90
46784;DHT22;32544;52.832;13.816;2023-04-03T06:02:56;22.90;43.80
46784;DHT22;32544;52.832;13.816;2023-04-03T06:03:59;22.90;43.80
46784;DHT22;32544;52.832;13.816;2023-04-03T06:04:59;22.90;43.70
46784;DHT22;32544;52.832;13.816;2023-04-03T06:06:02;22.90;43.60
46784;DHT22;32544;52.832;13.816;2023-04-03T06:07:03;22.90;43.50
46784;DHT22;32544;52.832;13.816;2023-04-03T06:08:04;22.90;43.40
46784;DHT22;32544;52.832;13.816;2023-04-03T06:09:06;22.90;43.40
46784;DHT22;32544;52.832;13.816;2023-04-03T06:10:07;22.90;43.30
46784;DHT22;32544;52.832;13.816;2023-04-03T06:11:09;22.90;43.90
46784;DHT22;32544;52.832;13.816;2023-04-03T06:12:09;22.90;43.20
46784;DHT22;32544;52.832;13.816;2023-04-03T06:13:11;22.90;43.00
46784;DHT22;32544;52.832;13.816;2023-04-03T06:14:12;22.90;43.00
46784;DHT22;32544;52.832;13.816;2023-04-03T06:15:13;22.90;43.00
46784;DHT22;32544;52.832;13.816;2023-04-03T06:16:18;22.90;43.00
46784;DHT22;32544;52.832;13.816;2023-04-03T06:17:19;22.90;43.00
46784;DHT22;32544;52.832;13.816;2023-04-03T06:18:21;22.80;42.80
46784;DHT22;32544;52.832;13.816;2023-04-03T06:19:22;22.90;42.80
46784;DHT22;32544;52.832;13.816;2023-04-03T06:20:26;22.90;42.70
46784;DHT22;32544;52.832;13.816;2023-04-03T06:21:28;22.80;41.00
46784;DHT22;32544;52.832;13.816;2023-04-03T06:22:29;22.80;39.40
46784;DHT22;32544;52.832;13.816;2023-04-03T06:23:30;22.80;39.20
46784;DHT22;32544;52.832;13.816;2023-04-03T06:24:31;22.80;39.10
46784;DHT22;32544;52.832;13.816;2023-04-03T06:25:31;22.50;35.80